Time;durP1;ratioP1;P1;durP2;ratioP2;P2;SDS_P1;SDS_P2;PMS_P1;PMS_P2;Temp;Humidity;BMP_temperature;BMP_pressure;BME280_temperature;BME280_humidity;BME280_pressure;Samples;Min_cycle;Max_cycle;Signal;HPM_P1;HPM_P2
2021/11/02 00:02:03;;;;;;;72.40;44.63;;;;;;;10.37;68.59;98958.28;2055913;84;28880;-66
2021/11/02 00:05:06;;;;;;;84.87;48.02;;;;;;;10.37;68.75;98946.23;2064443;84;31414;-66
2021/11/02 00:08:08;;;;;;;79.05;47.50;;;;;;;10.32;68.86;98955.94;2068801;85;32961;-67
2021/11/02 00:11:10;;;;;;;72.75;46.40;;;;;;;10.30;68.87;98955.19;2049703;86;30229;-67
2021/11/02 00:14:14;;;;;;;71.82;44.90;;;;;;;10.30;68.87;98959.20;2066188;85;27740;-66
2021/11/02 00:17:22;;;;;;;89.50;54.03;;;;;;;10.28;68.88;98948.61;2073372;84;28665;-66
2021/11/02 00:20:21;;;;;;;88.12;51.23;;;;;;;10.28;68.91;98949.08;2082073;84;31167;-65
2021/11/02 00:23:23;;;;;;;88.22;51.23;;;;;;;10.27;69.00;98940.67;2086344;84;33782;-65
2021/11/02 00:26:25;;;;;;;84.15;50.98;;;;;;;10.27;69.01;98932.64;2086582;84;29954;-66
2021/11/02 00:29:27;;;;;;;86.72;50.63;;;;;;;10.27;69.03;98933.98;2118843;82;27646;-65
2021/11/02 00:32:28;;;;;;;93.05;54.73;;;;;;;10.27;69.05;98928.63;2104799;84;28696;-62
2021/11/02 00:35:31;;;;;;;96.22;55.63;;;;;;;10.26;69.04;98922.44;2089356;84;31316;-66
2021/11/02 00:38:33;;;;;;;89.90;55.12;;;;;;;10.25;69.16;98919.38;2084927;85;34168;-66
2021/11/02 00:41:35;;;;;;;94.07;55.33;;;;;;;10.24;69.17;98915.49;2087200;85;29392;-66
2021/11/02 00:44:37;;;;;;;94.55;54.60;;;;;;;10.25;69.19;98917.20;2087713;85;27307;-67
2021/11/02 00:47:40;;;;;;;93.15;54.55;;;;;;;10.24;69.21;98910.98;2087227;85;29155;-68
2021/11/02 00:50:44;;;;;;;90.12;55.23;;;;;;;10.25;69.24;98911.36;2087610;85;31019;-68
2021/11/02 00:53:46;;;;;;;87.40;53.65;;;;;;;10.25;69.33;98906.50;2158957;80;33383;-67
2021/11/02 00:56:48;;;;;;;84.22;53.48;;;;;;;10.24;69.31;98905.63;2165796;82;30465;-67
2021/11/02 00:59:50;;;;;;;85.42;50.75;;;;;;;10.24;69.30;98902.11;2166183;82;27606;-66
2021/11/02 01:02:52;;;;;;;90.90;53.33;;;;;;;10.23;69.32;98896.37;2162670;82;29504;-66
2021/11/02 01:05:54;;;;;;;81.95;51.45;;;;;;;10.23;69.35;98896.37;2160635;80;31369;-68
2021/11/02 01:08:56;;;;;;;83.87;50.98;;;;;;;10.23;69.34;98892.37;2155286;82;33874;-66
2021/11/02 01:11:57;;;;;;;84.22;49.48;;;;;;;10.21;69.35;98889.78;2168311;80;30194;-65
2021/11/02 01:14:59;;;;;;;81.05;50.98;;;;;;;10.22;69.35;98888.81;2177606;80;27644;-65
2021/11/02 01:18:03;;;;;;;72.45;46.73;;;;;;;10.22;69.35;98884.80;2165883;80;29021;-65
2021/11/02 01:21:05;;;;;;;79.47;47.95;;;;;;;10.22;69.42;98875.44;2184000;79;32065;-62
2021/11/02 01:24:07;;;;;;;76.82;48.05;;;;;;;10.22;69.40;98876.77;2177561;81;33823;-64
2021/11/02 01:27:09;;;;;;;74.15;46.90;;;;;;;10.23;69.39;98877.14;2130397;83;30736;-61
2021/11/02 01:30:12;;;;;;;74.60;47.33;;;;;;;10.24;69.45;98869.98;2130880;83;27681;-65
2021/11/02 01:33:13;;;;;;;76.00;48.33;;;;;;;10.24;69.47;98867.31;2159247;81;29836;-64
2021/11/02 01:36:15;;;;;;;81.42;50.00;;;;;;;10.23;69.47;98869.12;2131460;81;32240;-64
2021/11/02 01:39:17;;;;;;;83.22;50.73;;;;;;;10.25;69.48;98865.02;2131754;83;33397;-65
2021/11/02 01:42:22;;;;;;;75.90;47.58;;;;;;;10.25;69.53;98855.14;2130093;82;29703;-66
2021/11/02 01:45:27;;;;;;;83.37;50.92;;;;;;;10.25;69.54;98852.47;2126482;82;27634;-62
2021/11/02 01:48:26;;;;;;;83.37;51.63;;;;;;;10.27;69.57;98855.02;2127643;82;29024;-64
2021/11/02 01:51:30;;;;;;;79.70;49.60;;;;;;;10.27;69.59;98845.19;2126987;83;31022;-62
2021/11/02 01:54:32;;;;;;;83.67;49.50;;;;;;;10.29;69.62;98841.05;2128098;83;33139;-64
2021/11/02 01:57:34;;;;;;;77.95;49.18;;;;;;;10.29;69.63;98833.02;2151992;82;29703;-64
2021/11/02 02:00:36;;;;;;;74.47;46.77;;;;;;;10.29;69.70;98828.55;2158795;82;27720;-62
2021/11/02 02:04:02;;;;;;;76.37;47.33;;;;;;;10.29;69.78;98828.55;2119228;82;28882;-66
2021/11/02 02:07:53;;;;;;;76.00;49.40;;;;;;;10.31;69.82;98819.05;2128693;83;31123;-66
2021/11/02 02:11:26;;;;;;;78.45;48.85;;;;;;;10.30;69.89;98811.98;2127383;83;33586;-64
2021/11/02 02:14:58;;;;;;;76.25;48.80;;;;;;;10.30;70.06;98806.16;2127737;83;30001;-65
2021/11/02 02:18:09;;;;;;;71.35;45.78;;;;;;;10.29;70.13;98800.91;2156154;82;27618;-66
2021/11/02 02:21:52;;;;;;;75.50;47.98;;;;;;;10.28;70.36;98795.17;2129438;82;28658;-66
2021/11/02 02:25:31;;;;;;;73.67;45.30;;;;;;;10.28;70.44;98796.05;2080363;85;32300;-65
2021/11/02 02:28:35;;;;;;;67.62;45.92;;;;;;;10.28;70.51;98795.17;2081587;85;33578;-66
2021/11/02 02:31:41;;;;;;;71.90;46.48;;;;;;;10.26;70.66;98784.59;2110938;84;29343;-65
2021/11/02 02:34:50;;;;;;;71.82;45.10;;;;;;;10.25;70.79;98785.56;2089015;84;27694;-65
2021/11/02 02:37:53;;;;;;;76.33;47.38;;;;;;;10.26;70.87;98783.75;2072266;83;29519;-61
2021/11/02 02:40:56;;;;;;;74.92;46.80;;;;;;;10.25;70.96;98780.20;2108099;84;31034;-60
2021/11/02 02:43:59;;;;;;;75.50;46.65;;;;;;;10.26;71.06;98777.06;2113177;82;33579;-61
2021/11/02 02:47:03;;;;;;;71.87;46.68;;;;;;;10.25;71.21;98772.67;2116072;83;29339;-64
2021/11/02 02:50:07;;;;;;;75.45;46.58;;;;;;;10.25;71.45;98772.17;2096904;84;27698;-61
2021/11/02 02:53:09;;;;;;;68.53;47.10;;;;;;;10.25;71.57;98774.02;2088845;85;28721;-61
2021/11/02 02:56:21;;;;;;;80.10;50.08;;;;;;;10.24;71.74;98766.95;2110590;84;33183;-64
2021/11/02 03:02:45;;;;;;;86.20;54.05;;;;;;;10.19;71.74;98761.45;2044492;86;27773;-66
2021/11/02 03:05:49;;;;;;;84.42;53.13;;;;;;;10.07;71.87;98744.08;2093621;83;36788;-64
2021/11/02 03:08:52;;;;;;;80.12;53.68;;;;;;;10.14;72.04;98758.23;2090156;85;28464;-66
2021/11/02 03:11:56;;;;;;;82.67;53.95;;;;;;;10.14;72.21;98757.39;2080277;84;31862;-67
2021/11/02 03:49:02;;;;;;;80.40;52.60;;;;;;;9.98;72.79;98752.29;2062307;84;33054;-65
2021/11/02 03:55:10;;;;;;;81.00;51.58;;;;;;;9.93;72.98;98760.66;2077652;85;27825;-62
2021/11/02 03:58:27;;;;;;;86.17;54.45;;;;;;;9.93;73.08;98763.33;2090251;82;29929;-66
2021/11/02 04:58:17;;;;;;;85.60;53.08;;;;;;;9.65;74.62;98733.22;2082616;85;30587;-65
2021/11/02 06:28:43;;;;;;;91.08;57.78;;;;;;;9.65;76.83;98690.91;2076483;85;30028;-64
2021/11/02 06:31:59;;;;;;;86.55;58.10;;;;;;;9.63;76.92;98689.69;2076687;85;32336;-65
2021/11/02 06:51:41;;;;;;;85.30;57.03;;;;;;;9.61;77.49;98709.00;2005568;87;33384;-62
2021/11/02 06:55:03;;;;;;;79.27;54.65;;;;;;;9.66;77.56;98711.34;1952391;88;30901;-63
2021/11/02 07:17:57;;;;;;;86.35;57.65;;;;;;;9.93;77.64;98721.03;2114044;83;28961;-62
2021/11/02 07:21:10;;;;;;;77.62;52.55;;;;;;;9.95;77.59;98718.60;2117018;82;31748;-65
2021/11/02 07:24:22;;;;;;;81.40;52.50;;;;;;;9.96;77.55;98721.65;2060714;84;34208;-65
2021/11/02 07:27:30;;;;;;;76.12;52.48;;;;;;;10.01;77.71;98726.16;2067070;85;30486;-58
2021/11/02 08:45:56;;;;;;;6.30;5.53;;;;;;;10.12;76.80;98746.78;2091751;83;31272;-64
2021/11/02 08:48:55;;;;;;;8.50;6.00;;;;;;;10.10;76.61;98752.73;2100318;83;33519;-64
2021/11/02 08:51:56;;;;;;;7.35;6.45;;;;;;;10.12;76.83;98756.16;2085798;83;30409;-65
2021/11/02 08:54:59;;;;;;;6.40;5.78;;;;;;;10.15;76.82;98759.11;2170309;80;27707;-64
2021/11/02 08:58:04;;;;;;;8.40;6.62;;;;;;;10.17;76.75;98746.47;2173137;81;29252;-60
2021/11/02 09:01:06;;;;;;;9.48;6.80;;;;;;;10.19;76.70;98748.06;2133714;82;31071;-61
2021/11/02 09:04:10;;;;;;;6.55;5.72;;;;;;;10.22;76.70;98756.34;2112553;82;33755;-60
2021/11/02 09:07:22;;;;;;;8.08;5.70;;;;;;;10.26;76.53;98748.96;2122499;82;29339;-61
2021/11/02 09:10:26;;;;;;;12.58;6.05;;;;;;;10.29;76.57;98756.73;2120509;82;27687;-62
2021/11/02 09:13:28;;;;;;;6.78;6.10;;;;;;;10.29;76.42;98765.64;2090955;83;28827;-60
2021/11/02 09:16:30;;;;;;;6.60;5.62;;;;;;;10.34;76.55;98763.46;2133233;82;32221;-61
2021/11/02 09:19:35;;;;;;;6.78;5.62;;;;;;;10.41;76.64;98767.94;2154497;81;33477;-60
2021/11/02 09:22:37;;;;;;;7.33;5.00;;;;;;;10.44;76.39;98770.36;2179151;80;29448;-60
2021/11/02 09:25:39;;;;;;;7.58;5.30;;;;;;;10.44;76.43;98768.19;2154590;79;27854;-60
2021/11/02 09:28:41;;;;;;;5.33;4.83;;;;;;;10.42;76.27;98783.03;2146908;81;28675;-61
2021/11/02 09:31:43;;;;;;;6.50;5.30;;;;;;;10.41;76.23;98776.44;2155997;82;31894;-63
2021/11/02 09:34:45;;;;;;;5.80;5.20;;;;;;;10.41;76.26;98775.97;2148056;81;34322;-63
2021/11/02 09:37:53;;;;;;;5.35;4.85;;;;;;;10.41;76.20;98784.00;2154193;82;30464;-63
2021/11/02 09:41:20;;;;;;;6.60;5.42;;;;;;;10.42;76.14;98783.03;2149890;81;27757;-65
2021/11/02 09:44:46;;;;;;;8.40;5.95;;;;;;;10.42;76.08;98785.71;2147505;81;29827;-62
2021/11/02 09:48:15;;;;;;;7.12;5.72;;;;;;;10.44;76.19;98791.78;2154154;81;32311;-63
2021/11/02 09:52:04;;;;;;;7.35;5.85;;;;;;;10.47;76.26;98782.19;2132791;82;34213;-64
2021/11/02 09:55:46;;;;;;;8.70;7.50;;;;;;;10.51;76.17;98796.70;2104665;83;30175;-64
2021/11/02 09:59:13;;;;;;;6.67;5.60;;;;;;;10.53;76.15;98795.60;2110761;83;27694;-63
2021/11/02 10:02:34;;;;;;;7.45;5.87;;;;;;;10.50;75.94;98787.82;2121664;82;29035;-63
2021/11/02 10:06:09;;;;;;;5.67;5.17;;;;;;;10.45;75.92;98789.48;2132941;81;31020;-62
2021/11/02 10:09:19;;;;;;;8.23;5.80;;;;;;;10.45;75.93;98797.51;2144103;81;33964;-63
2021/11/02 10:12:25;;;;;;;8.33;5.72;;;;;;;10.41;75.60;98792.50;2150574;81;29114;-64
2021/11/02 10:15:43;;;;;;;7.20;6.10;;;;;;;10.37;75.74;98792.31;2145859;81;27688;-64
2021/11/02 10:19:05;;;;;;;7.03;5.92;;;;;;;10.34;75.75;98792.06;2153648;82;29991;-64
2021/11/02 10:22:18;;;;;;;7.45;5.70;;;;;;;10.33;75.74;98794.37;2134240;82;32268;-65
2021/11/02 10:25:40;;;;;;;6.50;5.58;;;;;;;10.32;75.89;98804.70;2095199;82;33769;-63
2021/11/02 10:29:12;;;;;;;6.35;5.75;;;;;;;10.30;75.74;98795.45;2134380;82;29953;-61
2021/11/02 10:32:16;;;;;;;8.05;4.83;;;;;;;10.32;75.87;98800.69;2129853;82;27642;-63
2021/11/02 10:35:29;;;;;;;5.70;4.50;;;;;;;10.32;75.86;98797.55;2136484;82;28827;-62
2021/11/02 10:39:08;;;;;;;4.78;4.20;;;;;;;10.31;75.78;98799.84;2120223;82;31102;-63
2021/11/02 10:42:37;;;;;;;4.97;3.87;;;;;;;10.30;75.56;98802.61;2133833;82;32758;-64
2021/11/02 10:45:48;;;;;;;7.08;4.85;;;;;;;10.24;75.46;98805.76;2105712;82;29492;-64
2021/11/02 10:48:51;;;;;;;5.05;4.42;;;;;;;10.23;75.62;98809.40;2122389;82;27656;-64
2021/11/02 10:52:05;;;;;;;5.35;4.85;;;;;;;10.25;75.63;98808.81;2124329;82;28671;-61
2021/11/02 10:55:21;;;;;;;6.33;5.30;;;;;;;10.21;75.59;98808.16;2129352;82;31015;-63
2021/11/02 10:58:36;;;;;;;7.12;5.40;;;;;;;10.20;75.75;98811.79;2074183;85;34181;-62
2021/11/02 11:01:39;;;;;;;5.20;4.22;;;;;;;10.22;75.74;98809.02;2067207;85;29327;-64
2021/11/02 11:04:43;;;;;;;7.10;5.83;;;;;;;10.23;75.82;98812.91;2073791;85;27715;-64
2021/11/02 11:07:45;;;;;;;7.87;6.33;;;;;;;10.27;75.93;98814.41;2119259;82;29786;-63
2021/11/02 11:10:49;;;;;;;8.25;6.53;;;;;;;10.32;75.96;98810.92;2145333;82;32175;-64
2021/11/02 11:23:06;;;;;;;8.70;6.83;;;;;;;10.58;76.07;98822.06;2111918;83;28417;-60
2021/11/02 11:26:09;;;;;;;8.13;7.00;;;;;;;10.66;75.73;98825.52;2102537;83;29537;-63
2021/11/02 11:29:12;;;;;;;8.00;6.65;;;;;;;10.74;75.94;98824.45;2157599;81;32311;-62
2021/11/02 11:32:17;;;;;;;7.65;6.40;;;;;;;10.82;75.97;98829.23;2094025;82;32977;-64
2021/11/02 11:35:20;;;;;;;6.72;5.97;;;;;;;10.86;75.70;98818.17;2129933;82;29328;-60
2021/11/02 11:38:24;;;;;;;7.20;6.12;;;;;;;10.93;75.45;98810.05;2098168;83;27738;-60
2021/11/02 11:41:27;;;;;;;8.70;5.80;;;;;;;11.01;75.50;98809.47;2120167;83;28656;-60
2021/11/02 11:44:30;;;;;;;6.78;5.70;;;;;;;11.07;75.34;98807.68;2128409;83;31979;-63
2021/11/02 11:47:34;;;;;;;8.35;6.67;;;;;;;11.19;75.38;98813.91;2127041;83;34116;-60
2021/11/02 11:50:40;;;;;;;6.50;5.12;;;;;;;11.33;75.40;98811.52;2127192;83;29329;-62
2021/11/02 11:53:42;;;;;;;5.85;5.22;;;;;;;11.50;75.05;98814.22;2126638;83;27693;-59
2021/11/02 11:56:44;;;;;;;5.70;4.33;;;;;;;11.58;74.77;98810.98;2126607;83;29537;-59
2021/11/02 11:59:47;;;;;;;5.33;4.15;;;;;;;11.64;74.32;98817.69;2123710;83;30854;-59
2021/11/02 12:03:04;;;;;;;5.35;4.85;;;;;;;11.61;73.92;98817.92;2108978;84;33076;-60
2021/11/02 12:06:23;;;;;;;5.58;4.47;;;;;;;11.58;74.05;98816.81;2103428;84;29376;-60
2021/11/02 12:09:27;;;;;;;5.78;4.70;;;;;;;11.54;73.78;98818.38;2055090;86;27826;-59
2021/11/02 12:12:31;;;;;;;7.00;4.92;;;;;;;11.54;73.97;98821.56;2090862;84;29116;-62
2021/11/02 12:15:49;;;;;;;7.67;4.75;;;;;;;11.58;73.88;98825.73;2117051;84;30426;-60
2021/11/02 12:18:59;;;;;;;5.92;4.40;;;;;;;11.58;73.76;98826.20;2082508;85;32972;-61
2021/11/02 12:22:05;;;;;;;7.30;4.80;;;;;;;11.54;73.50;98823.75;2113018;83;29410;-60
2021/11/02 12:25:12;;;;;;;4.80;4.08;;;;;;;11.53;73.63;98819.86;2066460;85;27726;-59
2021/11/02 12:28:35;;;;;;;4.90;4.17;;;;;;;11.59;73.56;98826.56;2103119;83;29573;-60
2021/11/02 12:31:38;;;;;;;5.03;3.95;;;;;;;11.69;73.58;98826.20;2125041;82;31690;-66
2021/11/02 12:34:52;;;;;;;5.45;4.15;;;;;;;11.77;73.42;98826.94;2153816;82;33022;-66
2021/11/02 12:37:58;;;;;;;5.47;4.10;;;;;;;11.78;73.11;98825.50;2147662;82;30625;-66
2021/11/02 12:41:02;;;;;;;5.58;4.17;;;;;;;11.80;73.27;98826.70;2096583;84;27735;-60
2021/11/02 12:44:12;;;;;;;8.00;4.55;;;;;;;11.78;72.74;98825.97;2114706;83;29528;-60
2021/11/02 12:47:19;;;;;;;7.83;5.20;;;;;;;11.71;72.58;98825.60;2089752;83;31960;-60
2021/11/02 12:50:22;;;;;;;8.93;6.50;;;;;;;11.65;72.82;98828.78;2101543;83;33001;-61
2021/11/02 12:53:26;;;;;;;22.40;13.88;;;;;;;11.60;72.68;98834.48;2121211;83;30029;-62
2021/11/02 12:56:28;;;;;;;16.12;9.75;;;;;;;11.59;73.02;98829.25;2096993;83;27633;-61
2021/11/02 12:59:38;;;;;;;14.50;9.68;;;;;;;11.59;73.18;98832.77;2120579;83;30796;-61
2021/11/02 13:02:44;;;;;;;12.82;8.33;;;;;;;11.60;73.11;98833.64;2117041;83;31927;-61
2021/11/02 13:06:02;;;;;;;14.00;8.45;;;;;;;11.58;73.12;98836.45;2121478;83;32944;-61
2021/11/02 13:09:06;;;;;;;11.08;6.83;;;;;;;11.58;73.14;98831.56;2121522;83;30079;-60
2021/11/02 13:12:11;;;;;;;7.85;6.12;;;;;;;11.57;72.95;98828.04;2121585;83;27595;-60
2021/11/02 13:15:13;;;;;;;7.83;5.35;;;;;;;11.58;72.83;98832.91;2121434;83;28701;-61
2021/11/02 13:18:39;;;;;;;8.25;6.00;;;;;;;11.62;72.89;98820.97;2121106;83;31889;-64
2021/11/02 13:21:41;;;;;;;;;;;;;;;11.68;72.86;98821.81;2123744;83;34161;-64
2021/11/02 13:25:11;;;;;;;15.38;8.80;;;;;;;11.76;73.03;98831.47;2119989;83;30394;-65
2021/11/02 13:28:13;;;;;;;12.30;6.35;;;;;;;11.81;72.60;98833.78;2081599;85;27692;-61
2021/11/02 13:31:38;;;;;;;8.75;5.22;;;;;;;11.82;71.93;98827.45;2063837;85;28866;-60
2021/11/02 13:34:42;;;;;;;9.63;5.70;;;;;;;11.86;72.06;98823.55;2083352;85;31178;-64
2021/11/02 13:37:43;;;;;;;10.95;5.60;;;;;;;11.98;72.22;98823.95;2113190;82;32217;-65
2021/11/02 13:40:52;;;;;;;7.92;5.15;;;;;;;12.05;71.89;98817.59;2116966;83;29781;-63
2021/11/02 13:44:02;;;;;;;7.00;4.87;;;;;;;12.08;71.48;98816.52;2118587;83;27653;-66
2021/11/02 13:47:09;;;;;;;5.08;3.98;;;;;;;12.11;71.31;98814.91;2118790;83;28643;-69
2021/11/02 13:50:09;;;;;;;5.45;4.50;;;;;;;12.08;70.92;98818.70;2102847;83;31038;-67
2021/11/02 13:53:11;;;;;;;4.90;4.05;;;;;;;12.01;70.61;98826.86;2130643;83;34171;-68
2021/11/02 13:56:21;;;;;;;6.20;4.37;;;;;;;12.00;70.66;98828.71;2117985;83;29431;-66
2021/11/02 13:59:23;;;;;;;8.50;5.80;;;;;;;12.02;70.72;98831.77;2118269;83;27708;-65
2021/11/02 14:02:26;;;;;;;6.50;4.80;;;;;;;12.00;70.48;98834.08;2118439;83;30045;-66
2021/11/02 14:05:29;;;;;;;10.65;6.75;;;;;;;11.99;70.34;98832.37;2117783;83;32071;-66
2021/11/02 14:08:33;;;;;;;10.68;6.20;;;;;;;12.00;70.45;98839.91;2133311;82;32974;-64
2021/11/02 14:11:37;;;;;;;13.53;8.03;;;;;;;12.04;70.34;98838.70;2110559;83;29381;-63
2021/11/02 14:14:40;;;;;;;13.97;7.43;;;;;;;12.07;70.36;98839.81;2094913;84;27761;-65
2021/11/02 14:17:56;;;;;;;10.60;6.90;;;;;;;12.07;70.02;98841.66;2094711;85;29571;-61
2021/11/02 14:20:58;;;;;;;6.62;4.78;;;;;;;12.04;70.12;98845.41;2093086;85;31035;-60
2021/11/02 14:24:06;;;;;;;8.60;5.37;;;;;;;12.05;70.17;98847.12;2095179;84;33765;-62
2021/11/02 14:27:15;;;;;;;18.37;9.88;;;;;;;12.03;69.85;98850.92;2058431;84;29343;-63
2021/11/02 14:30:41;;;;;;;12.05;7.00;;;;;;;11.99;69.81;98851.66;2038319;87;27699;-68
2021/11/02 14:33:45;;;;;;;11.97;5.65;;;;;;;11.96;69.61;98857.23;2044985;86;28665;-61
2021/11/02 14:36:47;;;;;;;10.78;6.05;;;;;;;11.89;69.62;98858.20;2015070;88;32129;-64
2021/11/02 14:40:03;;;;;;;44.00;18.40;;;;;;;11.82;69.35;98857.83;2049732;86;34282;-64
2021/11/02 14:43:19;;;;;;;32.80;15.28;;;;;;;11.77;69.52;98857.80;2054846;86;29336;-62
2021/11/02 14:46:21;;;;;;;43.00;16.80;;;;;;;11.69;69.31;98864.63;2050126;86;27614;-63
2021/11/02 14:49:37;;;;;;;67.95;29.95;;;;;;;11.61;69.71;98867.04;2049592;86;29920;-60
2021/11/02 14:52:38;;;;;;;56.55;24.52;;;;;;;11.57;69.90;98866.06;2049813;86;31031;-61
2021/11/02 14:55:55;;;;;;;34.13;17.70;;;;;;;11.50;70.12;98869.20;2051212;85;33049;-63
2021/11/02 14:59:03;;;;;;;22.65;11.85;;;;;;;11.45;69.96;98859.80;2049843;86;29365;-65
2021/11/02 15:02:07;;;;;;;11.20;6.85;;;;;;;11.35;69.79;98860.52;2051396;85;27673;-65
2021/11/02 15:05:15;;;;;;;11.25;5.97;;;;;;;11.26;69.90;98867.91;2049556;86;28636;-66
2021/11/02 15:08:21;;;;;;;11.20;6.78;;;;;;;11.16;70.04;98870.45;2030749;86;31863;-65
2021/11/02 15:11:23;;;;;;;11.57;6.35;;;;;;;11.09;70.30;98866.02;2050002;86;33010;-65
2021/11/02 15:14:32;;;;;;;11.90;5.72;;;;;;;11.02;70.48;98870.14;2049725;86;29383;-64
2021/11/02 15:17:36;;;;;;;5.80;4.05;;;;;;;10.97;70.67;98871.45;2050006;86;28276;-62
2021/11/02 15:20:38;;;;;;;5.70;4.20;;;;;;;10.90;70.76;98875.08;2049862;86;29463;-63
2021/11/02 15:23:44;;;;;;;6.85;4.15;;;;;;;10.86;71.07;98881.63;2049598;86;32437;-66
2021/11/02 15:26:57;;;;;;;7.62;4.60;;;;;;;10.82;71.16;98885.02;2063104;85;32968;-65
2021/11/02 15:30:07;;;;;;;12.23;7.00;;;;;;;10.77;71.25;98888.52;2080796;85;29424;-60
2021/11/02 15:33:09;;;;;;;14.45;9.18;;;;;;;10.73;71.44;98893.72;2082795;85;27697;-64
2021/11/02 15:36:23;;;;;;;15.63;10.43;;;;;;;10.69;71.58;98893.09;2115636;84;29348;-59
2021/11/02 15:39:26;;;;;;;12.78;10.03;;;;;;;10.66;71.66;98895.16;2115821;83;31060;-63
2021/11/02 15:42:44;;;;;;;12.63;9.43;;;;;;;10.61;71.76;98903.02;2115245;83;33828;-59
2021/11/02 15:45:48;;;;;;;12.15;8.20;;;;;;;10.57;71.80;98907.38;2115194;84;30393;-60
2021/11/02 15:48:56;;;;;;;10.65;8.70;;;;;;;10.55;72.05;98909.31;2079021;85;27823;-62
2021/11/02 15:52:00;;;;;;;18.07;11.18;;;;;;;10.51;72.10;98912.67;2078333;85;28708;-59
2021/11/02 15:55:13;;;;;;;34.85;19.07;;;;;;;10.48;72.25;98912.92;2115010;84;31031;-58
2021/11/02 15:58:17;;;;;;;47.65;22.98;;;;;;;10.45;72.27;98916.65;2120180;83;33570;-60
2021/11/02 16:01:38;;;;;;;54.35;24.80;;;;;;;10.43;72.45;98917.23;2159377;81;29388;-61
2021/11/02 16:04:40;;;;;;;46.40;20.23;;;;;;;10.40;72.51;98916.14;2159668;82;27654;-60
2021/11/02 16:07:43;;;;;;;40.40;17.65;;;;;;;10.37;72.57;98921.68;2159395;82;29490;-64
2021/11/02 16:10:54;;;;;;;29.27;13.55;;;;;;;10.35;72.65;98914.23;2159716;82;32035;-66
2021/11/02 16:13:56;;;;;;;23.38;11.97;;;;;;;10.33;72.71;98916.16;2159746;82;33765;-66
2021/11/02 16:17:00;;;;;;;24.43;11.50;;;;;;;10.30;72.83;98917.25;2114747;82;29797;-66
2021/11/02 16:20:04;;;;;;;24.85;13.72;;;;;;;10.29;72.85;98916.00;2159822;82;27667;-67
2021/11/02 16:23:19;;;;;;;46.63;24.07;;;;;;;10.26;72.97;98913.06;2159566;82;42984;-63
2021/11/02 16:26:28;;;;;;;121.30;57.88;;;;;;;10.23;72.96;98920.47;2152115;82;35286;-67
2021/11/02 16:29:30;;;;;;;155.52;66.47;;;;;;;10.21;72.98;98923.73;2133958;83;33841;-68
2021/11/02 16:32:35;;;;;;;87.90;39.50;;;;;;;10.17;72.99;98927.11;2134002;83;29595;-61
2021/11/02 16:35:51;;;;;;;61.55;28.23;;;;;;;10.13;73.08;98920.26;2105434;83;27769;-68
2021/11/02 16:38:59;;;;;;;70.95;33.55;;;;;;;10.10;73.16;98923.14;2131235;83;28665;-69
2021/11/02 16:42:24;;;;;;;53.55;27.67;;;;;;;10.04;73.12;98923.94;2127626;83;31110;-60
2021/11/02 16:45:35;;;;;;;52.43;27.20;;;;;;;9.98;73.13;98925.72;2107974;84;32873;-67
2021/11/02 16:48:45;;;;;;;42.62;22.67;;;;;;;9.92;73.15;98930.14;2107090;83;29708;-67
2021/11/02 16:51:54;;;;;;;34.00;19.77;;;;;;;9.87;73.25;98933.61;2107384;84;27717;-68
2021/11/02 16:55:12;;;;;;;39.67;19.48;;;;;;;9.80;73.21;98933.67;2107025;83;29560;-68
2021/11/02 16:58:25;;;;;;;28.83;15.70;;;;;;;9.73;73.37;98927.89;2104476;83;31092;-62
2021/11/02 17:01:35;;;;;;;28.83;17.30;;;;;;;9.70;73.45;98934.78;2079139;84;32972;-62
2021/11/02 17:04:38;;;;;;;32.95;19.87;;;;;;;9.66;73.60;98939.95;2067167;85;30144;-66
2021/11/02 17:08:05;;;;;;;32.23;21.33;;;;;;;9.63;73.72;98938.81;2102290;83;28222;-66
2021/11/02 17:11:10;;;;;;;36.30;23.12;;;;;;;9.61;73.68;98934.05;2066696;85;30151;-66
2021/11/02 17:14:15;;;;;;;37.93;24.90;;;;;;;9.58;73.74;98933.79;2044981;85;31137;-66
2021/11/02 17:17:19;;;;;;;39.63;26.80;;;;;;;9.55;73.81;98925.97;2097725;83;32991;-64
2021/11/02 17:20:21;;;;;;;39.38;25.68;;;;;;;9.51;73.82;98929.34;2078874;84;30525;-60
2021/11/02 17:23:23;;;;;;;39.03;23.92;;;;;;;9.49;73.87;98928.58;2090680;83;27653;-67
2021/11/02 17:26:29;;;;;;;29.27;19.90;;;;;;;9.45;73.91;98929.74;2053264;85;29120;-65
2021/11/02 17:29:32;;;;;;;25.05;18.95;;;;;;;9.40;73.96;98933.23;2088253;85;31046;-65
2021/11/02 17:32:35;;;;;;;26.55;17.87;;;;;;;9.37;74.03;98944.95;2097281;83;34173;-67
2021/11/02 17:35:38;;;;;;;26.45;17.17;;;;;;;9.34;74.05;98946.98;2092212;84;29338;-64
2021/11/02 17:38:41;;;;;;;26.17;18.37;;;;;;;9.30;74.21;98950.81;2100583;83;27734;-65
2021/11/02 17:41:45;;;;;;;25.30;17.10;;;;;;;9.28;74.29;98952.27;2091176;85;29493;-67
2021/11/02 17:44:48;;;;;;;24.43;16.60;;;;;;;9.26;74.32;98962.19;2087639;84;31018;-69
2021/11/02 17:47:53;;;;;;;64.20;32.23;;;;;;;9.26;74.46;98964.87;2042405;86;32994;-68
2021/11/02 17:50:55;;;;;;;77.58;35.50;;;;;;;9.25;74.40;98966.70;2064561;86;29336;-68
2021/11/02 17:53:58;;;;;;;81.80;36.15;;;;;;;9.26;74.53;98971.55;2053614;86;27678;-68
2021/11/02 17:57:01;;;;;;;84.95;38.38;;;;;;;9.27;74.69;98979.95;2071351;85;29366;-68
2021/11/02 18:00:06;;;;;;;55.30;26.07;;;;;;;9.28;74.75;98978.98;2088350;85;32460;-68
2021/11/02 18:03:10;;;;;;;37.45;20.48;;;;;;;9.30;74.76;98986.43;2087660;85;33797;-70
2021/11/02 18:06:16;;;;;;;31.30;16.67;;;;;;;9.31;74.79;98988.14;2074965;85;29798;-68
2021/11/02 18:09:18;;;;;;;;;;;;;;;9.33;74.90;98986.23;2059000;85;27701;-69
2021/11/02 18:12:33;;;;;;;21.90;13.50;;;;;;;9.34;74.60;98993.75;2069687;85;29023;-69
2021/11/02 18:15:36;;;;;;;23.20;13.03;;;;;;;9.33;74.53;98990.70;2086983;85;31916;-68
2021/11/02 18:18:42;;;;;;;29.50;16.90;;;;;;;9.33;74.56;98995.59;2084128;85;33768;-63
2021/11/02 18:21:45;;;;;;;34.98;20.55;;;;;;;9.33;74.45;98988.91;2138821;83;29514;-67
2021/11/02 18:24:50;;;;;;;38.85;20.92;;;;;;;9.34;74.42;98987.08;2128998;83;27686;-69
2021/11/02 18:27:59;;;;;;;40.43;22.15;;;;;;;9.35;74.55;98982.11;2127363;82;29180;-70
2021/11/02 18:31:00;;;;;;;42.98;22.67;;;;;;;9.37;74.39;98990.89;2125656;83;31086;-68
2021/11/02 18:34:03;;;;;;;51.08;23.47;;;;;;;9.38;74.49;98984.59;2126696;83;33743;-67
2021/11/02 18:37:06;;;;;;;42.13;23.50;;;;;;;9.38;74.52;98980.08;2126799;83;29321;-68
2021/11/02 18:40:12;;;;;;;44.00;25.30;;;;;;;9.39;74.53;98988.48;2127019;83;27684;-68
2021/11/02 18:43:16;;;;;;;46.10;25.35;;;;;;;9.40;74.62;98984.02;2129770;80;28655;-69
2021/11/02 18:46:19;;;;;;;45.23;24.07;;;;;;;9.39;74.61;98986.30;2168076;80;31090;-67
2021/11/02 18:49:24;;;;;;;43.85;24.45;;;;;;;9.38;74.72;98980.08;2166390;80;33038;-69
2021/11/02 18:52:27;;;;;;;44.73;24.63;;;;;;;9.37;74.70;98983.72;2168519;80;29335;-68
2021/11/02 18:55:29;;;;;;;38.73;23.75;;;;;;;9.34;74.69;98991.08;2164445;80;28300;-68
2021/11/02 18:58:35;;;;;;;47.75;25.95;;;;;;;9.31;74.62;98992.16;2159811;81;29683;-68
2021/11/02 19:01:43;;;;;;;49.67;28.80;;;;;;;9.26;74.57;98988.92;2168681;81;32106;-66
2021/11/02 19:04:57;;;;;;;67.00;34.98;;;;;;;9.19;74.51;98990.27;2157246;81;34208;-64
2021/11/02 19:08:04;;;;;;;85.50;42.45;;;;;;;9.11;74.39;98996.10;2141602;81;29429;-62
2021/11/02 19:11:15;;;;;;;73.90;39.23;;;;;;;9.02;74.25;98998.05;2169303;81;27616;-61
2021/11/02 19:14:21;;;;;;;71.72;37.55;;;;;;;8.92;74.25;98999.98;2165727;80;29922;-62
2021/11/02 19:17:30;;;;;;;61.45;33.95;;;;;;;8.85;74.26;99004.48;2175216;81;31043;-66
2021/11/02 19:20:39;;;;;;;57.38;32.78;;;;;;;8.76;74.19;99001.91;2166657;81;33803;-60
2021/11/02 19:23:41;;;;;;;64.65;35.23;;;;;;;8.64;74.19;98996.86;2161443;81;30611;-63
2021/11/02 19:26:44;;;;;;;63.33;35.80;;;;;;;8.57;74.36;99004.41;2164128;81;27603;-68
2021/11/02 19:29:45;;;;;;;67.17;37.08;;;;;;;8.50;74.46;99003.05;2151875;82;29165;-62
2021/11/02 19:32:48;;;;;;;69.67;37.00;;;;;;;8.45;74.48;99007.78;2152319;81;31027;-66
2021/11/02 19:35:51;;;;;;;76.07;38.58;;;;;;;8.39;74.50;99006.84;2151214;81;33836;-64
2021/11/02 19:38:54;;;;;;;74.55;39.05;;;;;;;8.32;74.58;99005.88;2166586;81;29717;-61
2021/11/02 19:41:56;;;;;;;68.85;37.85;;;;;;;8.27;74.49;99002.65;2151427;82;27716;-59